首页
METAR-TAF:

METAR-TAF

机场 :

Penn Valley Airport

Selinsgrove, 宾夕法尼亚州, 美国

纬度: 40-49-09N, 经度: 076-51-58W, 海拔: 137米

当前天气观测

该预报发布于1小时和4分钟前的06:53 UTC
风速5节,风向多变
温度 9°C
湿度 87%
气压 1006 hPa
能見度: 14.5公里
阴天层高于700英尺

METAR: KSEG 100653Z AUTO VRB05KT 9SM OVC007 09/07 A2970 RMK AO2 SLP059 T00890072

时间: 02:57 (07:57 UTC)


TAF: 丢失

超过4000个机场的气象观测和天气预报(METAR&TAF报告)。

可查询的气象台以黄色和红色小点在地图上表示。

将鼠标移到小点上方,可查看气象台名称。

然后点击查看天气观测和预报。

如需切换地图:点击带黑十字的绿色按钮放大地图;点击带横线的绿色按钮缩小地图;或者点击绿色箭头查看邻近地区的地图。


METAR-TAF: